Time;durP1;ratioP1;P1;durP2;ratioP2;P2;SDS_P1;SDS_P2;PMS_P1;PMS_P2;Temp;Humidity;BMP_temperature;BMP_pressure;BME280_temperature;BME280_humidity;BME280_pressure;Samples;Min_cycle;Max_cycle;Signal;HPM_P1;HPM_P2
2023/03/25 00:02:11;;;;;;;4.28;1.25;;;;;;;-148.88;100.00;75192.28;5095477;28;20427;-78
2023/03/25 00:04:40;;;;;;;3.40;1.10;;;;;;;-148.88;100.00;75184.16;5095382;28;20028;-78
2023/03/25 00:07:05;;;;;;;6.40;1.90;;;;;;;-148.88;100.00;75184.16;5096121;28;20020;-78
2023/03/25 00:09:43;;;;;;;3.35;1.00;;;;;;;-148.88;100.00;75176.03;5096305;28;20016;-78
2023/03/25 00:12:08;;;;;;;6.78;1.70;;;;;;;-148.88;100.00;75167.91;5096663;28;20029;-78
2023/03/25 00:14:36;;;;;;;4.47;1.80;;;;;;;-148.88;100.00;75155.72;5096384;28;20043;-78
2023/03/25 00:17:09;;;;;;;2.80;1.20;;;;;;;-148.88;100.00;75155.72;5095496;28;20031;-78
2023/03/25 00:19:49;;;;;;;3.20;1.25;;;;;;;-148.88;100.00;75153.69;5095308;28;20020;-78
2023/03/25 00:22:17;;;;;;;3.45;0.95;;;;;;;-148.88;100.00;75151.66;5095700;28;20047;-78
2023/03/25 00:24:43;;;;;;;5.22;1.90;;;;;;;-148.88;100.00;75143.53;5094309;28;20062;-78
2023/03/25 00:27:08;;;;;;;8.20;2.28;;;;;;;-148.88;100.00;75141.50;5094717;28;20093;-78
2023/03/25 00:29:36;;;;;;;7.15;1.55;;;;;;;-148.88;100.00;75141.50;5096626;28;20017;-78
2023/03/25 00:32:10;;;;;;;6.10;1.60;;;;;;;-148.88;100.00;75131.34;5096316;28;20028;-78
2023/03/25 00:34:45;;;;;;;4.53;1.90;;;;;;;-148.88;100.00;75147.59;5098955;28;20451;-78
2023/03/25 00:37:20;;;;;;;5.40;1.95;;;;;;;-148.88;100.00;75151.66;5099677;28;20028;-78
2023/03/25 00:39:48;;;;;;;5.70;1.85;;;;;;;-148.88;100.00;75151.66;5099124;28;20027;-78
2023/03/25 00:42:25;;;;;;;5.55;1.90;;;;;;;-148.88;100.00;75139.47;5100311;28;20111;-78
2023/03/25 00:44:53;;;;;;;5.10;1.65;;;;;;;-148.88;100.00;75139.47;5101588;28;20020;-78
2023/03/25 00:47:20;;;;;;;4.43;2.80;;;;;;;-148.88;100.00;75143.53;5101989;28;20067;-78
2023/03/25 00:49:47;;;;;;;5.57;2.80;;;;;;;-148.88;100.00;75161.81;5103060;28;20051;-79
2023/03/25 00:52:14;;;;;;;3.40;1.40;;;;;;;-148.88;100.00;75157.75;5100599;28;20081;-79
2023/03/25 00:57:07;;;;;;;6.65;1.88;;;;;;;-148.88;100.00;75196.34;5115113;22;20060;-80
2023/03/25 00:59:32;;;;;;;5.07;2.55;;;;;;;-148.88;100.00;75196.34;5088761;28;20020;-80
2023/03/25 01:01:57;;;;;;;5.25;1.83;;;;;;;-148.88;100.00;75200.41;5099701;28;20023;-79
2023/03/25 01:04:23;;;;;;;4.78;2.10;;;;;;;-148.88;100.00;75202.44;5097644;28;20020;-79
2023/03/25 01:06:50;;;;;;;7.88;2.17;;;;;;;-148.88;100.00;75200.41;5099695;28;20107;-80
2023/03/25 01:09:18;;;;;;;6.07;2.85;;;;;;;-148.88;100.00;75208.53;5087274;28;20455;-79
2023/03/25 01:11:44;;;;;;;6.63;2.60;;;;;;;-148.88;100.00;75212.59;5086128;28;20024;-80
2023/03/25 01:14:16;;;;;;;4.95;2.20;;;;;;;-148.88;100.00;75194.31;5104613;28;20198;-80
2023/03/25 01:16:42;;;;;;;5.43;2.92;;;;;;;-148.88;100.00;75196.34;5105447;28;20063;-79
2023/03/25 01:19:08;;;;;;;8.30;3.83;;;;;;;-148.88;100.00;75196.34;5087179;28;20028;-80
2023/03/25 01:21:35;;;;;;;5.78;2.40;;;;;;;-148.88;100.00;75196.34;5086885;28;20054;-79
2023/03/25 01:24:02;;;;;;;5.15;2.58;;;;;;;-148.88;100.00;75192.28;5106187;28;20036;-80
2023/03/25 01:26:28;;;;;;;4.88;2.53;;;;;;;-148.88;100.00;75196.34;5106059;28;20051;-80
2023/03/25 01:28:53;;;;;;;4.78;2.40;;;;;;;-148.88;100.00;75182.13;5106527;28;20031;-80
2023/03/25 01:31:21;;;;;;;5.47;2.28;;;;;;;-148.88;100.00;75186.19;5105499;28;20016;-79
2023/03/25 01:33:47;;;;;;;5.85;2.05;;;;;;;-148.88;100.00;75182.13;5106562;28;20019;-79
2023/03/25 01:36:12;;;;;;;5.90;2.72;;;;;;;-148.88;100.00;75180.09;5104867;28;20358;-80
2023/03/25 01:38:38;;;;;;;8.02;2.67;;;;;;;-148.88;100.00;75188.22;5097348;28;20062;-79
2023/03/25 01:41:05;;;;;;;7.57;2.92;;;;;;;-148.88;100.00;75180.09;5078934;28;20021;-79
2023/03/25 01:43:31;;;;;;;3.75;2.83;;;;;;;-148.88;100.00;75180.09;5104312;28;20398;-80
2023/03/25 01:45:56;;;;;;;3.80;2.10;;;;;;;-148.88;100.00;75171.97;5087858;28;20058;-80
2023/03/25 01:48:27;;;;;;;7.30;2.78;;;;;;;-148.88;100.00;75167.91;5105596;28;20078;-80
2023/03/25 01:50:59;;;;;;;3.83;2.08;;;;;;;-148.88;100.00;75163.84;5106095;28;20024;-80
2023/03/25 01:53:29;;;;;;;3.92;1.90;;;;;;;-148.88;100.00;75167.91;5106300;28;20039;-80
2023/03/25 01:55:55;;;;;;;5.88;3.40;;;;;;;-148.88;100.00;75161.81;5087797;28;20135;-80
2023/03/25 01:58:23;;;;;;;6.78;2.60;;;;;;;-148.88;100.00;75169.94;5086699;28;20028;-80
2023/03/25 02:00:50;;;;;;;6.38;2.78;;;;;;;-148.88;100.00;75167.91;5087350;28;20024;-80
2023/03/25 02:03:20;;;;;;;5.22;2.60;;;;;;;-148.88;100.00;75186.19;5087013;28;20027;-80
2023/03/25 02:05:53;;;;;;;4.63;2.75;;;;;;;-148.88;100.00;75190.25;5086798;28;20105;-80
2023/03/25 02:08:20;;;;;;;5.03;2.28;;;;;;;-148.88;100.00;75176.03;5086783;28;20028;-80
2023/03/25 02:10:46;;;;;;;7.70;3.92;;;;;;;-148.88;100.00;75178.06;5087402;28;20032;-80
2023/03/25 02:13:13;;;;;;;5.70;2.47;;;;;;;-148.88;100.00;75161.81;5087547;28;20501;-80
2023/03/25 02:16:19;;;;;;;8.45;2.67;;;;;;;-148.88;100.00;75167.91;5098469;28;20051;-79
2023/03/25 02:18:53;;;;;;;4.72;2.35;;;;;;;-148.88;100.00;75165.88;5102852;28;20016;-80
2023/03/25 02:21:58;;;;;;;4.50;2.25;;;;;;;-148.88;100.00;75163.84;5086494;28;20055;-80
2023/03/25 02:25:03;;;;;;;5.45;2.00;;;;;;;-148.88;100.00;75157.75;5105218;28;20027;-80
2023/03/25 02:27:40;;;;;;;;;;;;;;;-148.88;100.00;75165.88;5104739;28;20094;-80
2023/03/25 02:30:19;;;;;;;8.20;2.40;;;;;;;-148.88;100.00;75163.84;5086936;28;19915;-80
2023/03/25 02:33:13;;;;;;;6.10;2.70;;;;;;;-148.88;100.00;75165.88;5087165;28;20028;-80
2023/03/25 02:36:03;;;;;;;4.28;2.03;;;;;;;-148.88;100.00;75155.72;5105833;28;20028;-80
2023/03/25 02:38:49;;;;;;;4.88;2.50;;;;;;;-148.88;100.00;75163.84;5104807;28;20482;-80
2023/03/25 02:41:43;;;;;;;3.17;1.80;;;;;;;-148.88;100.00;75163.84;5086429;28;20039;-80
2023/03/25 02:44:22;;;;;;;3.40;2.10;;;;;;;-148.88;100.00;75163.84;5105331;28;20020;-81
2023/03/25 02:46:51;;;;;;;6.03;1.98;;;;;;;-148.88;100.00;75149.63;5087420;28;20028;-80
2023/03/25 02:49:24;;;;;;;10.30;1.58;;;;;;;-148.88;100.00;75155.72;5104281;28;20034;-80
2023/03/25 02:51:55;;;;;;;3.92;1.45;;;;;;;-148.88;100.00;75147.59;5096153;28;20039;-79
2023/03/25 02:54:25;;;;;;;4.72;1.63;;;;;;;-148.88;100.00;75155.72;5084335;28;20035;-80
2023/03/25 02:56:56;;;;;;;4.15;1.73;;;;;;;-148.88;100.00;75155.72;5104110;28;20056;-80
2023/03/25 02:59:23;;;;;;;5.38;1.60;;;;;;;-148.88;100.00;75163.84;5104125;28;20035;-80
2023/03/25 03:01:49;;;;;;;8.63;1.90;;;;;;;-148.88;100.00;75151.66;5104169;28;20024;-80
2023/03/25 03:04:14;;;;;;;8.05;2.35;;;;;;;-148.88;100.00;75161.81;5105500;28;20065;-81
2023/03/25 03:06:42;;;;;;;7.63;3.03;;;;;;;-148.88;100.00;75176.03;5104083;28;20019;-80
2023/03/25 03:09:30;;;;;;;8.00;2.30;;;;;;;-148.88;100.00;75180.09;5104146;28;20027;-80
2023/03/25 03:12:23;;;;;;;5.22;2.10;;;;;;;-148.88;100.00;75163.84;5085087;28;20020;-80
2023/03/25 03:14:59;;;;;;;6.00;2.15;;;;;;;-148.88;100.00;75163.84;5104845;28;20027;-80
2023/03/25 03:17:36;;;;;;;4.15;2.00;;;;;;;-148.88;100.00;75178.06;5086429;28;20146;-80
2023/03/25 03:20:16;;;;;;;6.85;1.92;;;;;;;-148.88;100.00;75169.94;5104678;28;20024;-80
2023/03/25 03:22:51;;;;;;;7.65;2.28;;;;;;;-148.88;100.00;75176.03;5087163;28;20158;-80
2023/03/25 03:25:31;;;;;;;8.75;1.80;;;;;;;-148.88;100.00;75178.06;5105765;28;20146;-80
2023/03/25 03:28:06;;;;;;;5.07;1.67;;;;;;;-148.88;100.00;75176.03;5080888;28;20023;-80
2023/03/25 03:30:45;;;;;;;6.82;2.08;;;;;;;-148.88;100.00;75184.16;5085650;28;20016;-80
2023/03/25 03:33:34;;;;;;;8.73;2.03;;;;;;;-148.88;100.00;75163.84;5085657;28;20024;-80
2023/03/25 03:36:06;;;;;;;7.68;2.85;;;;;;;-148.88;100.00;75176.03;5103945;28;20093;-80
2023/03/25 03:38:38;;;;;;;8.30;2.88;;;;;;;-148.88;100.00;75190.25;5103487;28;20016;-80
2023/03/25 03:41:09;;;;;;;8.10;2.05;;;;;;;-148.88;100.00;75171.97;5085431;28;20047;-80
2023/03/25 03:43:55;;;;;;;10.13;2.00;;;;;;;-148.88;100.00;75176.03;5103542;28;20028;-80
2023/03/25 03:46:32;;;;;;;7.35;2.03;;;;;;;-148.88;100.00;75184.16;5104937;28;20051;-80
2023/03/25 03:48:59;;;;;;;10.60;3.45;;;;;;;-148.88;100.00;75182.13;5104132;28;20185;-81
2023/03/25 03:51:48;;;;;;;6.20;1.90;;;;;;;-148.88;100.00;75194.31;5104216;28;20020;-80
2023/03/25 03:54:21;;;;;;;5.28;2.13;;;;;;;-148.88;100.00;75196.34;5105308;28;20077;-81
2023/03/25 03:57:01;;;;;;;6.63;1.88;;;;;;;-148.88;100.00;75212.59;5086512;28;20036;-81
2023/03/25 03:59:35;;;;;;;5.18;1.98;;;;;;;-148.88;100.00;75208.53;5104856;28;20105;-80
2023/03/25 04:02:07;;;;;;;5.55;2.65;;;;;;;-148.88;100.00;75212.59;5105804;28;20032;-80
2023/03/25 04:04:33;;;;;;;5.30;1.80;;;;;;;-148.88;100.00;75224.78;5085670;28;20123;-80
2023/03/25 04:07:09;;;;;;;3.70;2.30;;;;;;;-148.88;100.00;75220.72;5089880;28;20024;-80
2023/03/25 04:10:01;;;;;;;5.43;2.70;;;;;;;-148.88;100.00;75232.91;5102292;28;20530;-79
2023/03/25 04:12:32;;;;;;;4.07;2.78;;;;;;;-148.88;100.00;75253.22;5098705;28;20482;-79
2023/03/25 04:15:02;;;;;;;6.05;2.20;;;;;;;-148.88;100.00;75265.41;5098997;28;20544;-79
2023/03/25 04:17:28;;;;;;;4.97;2.83;;;;;;;-148.88;100.00;75265.41;5098408;28;20025;-79
2023/03/25 04:19:54;;;;;;;5.95;4.35;;;;;;;-148.88;100.00;75277.59;5080029;28;20028;-79
2023/03/25 04:22:20;;;;;;;9.00;3.40;;;;;;;-148.88;100.00;75261.34;5099397;28;20054;-79
2023/03/25 04:24:48;;;;;;;6.32;3.40;;;;;;;-148.88;100.00;75283.66;5099438;28;20024;-80
2023/03/25 04:27:15;;;;;;;8.20;3.80;;;;;;;-148.88;100.00;75285.69;5081187;28;20482;-79
2023/03/25 04:29:40;;;;;;;6.03;3.22;;;;;;;-148.88;100.00;75279.59;5081144;28;20058;-79
2023/03/25 04:32:07;;;;;;;6.32;3.83;;;;;;;-148.88;100.00;75287.72;5099869;28;20020;-79
2023/03/25 04:34:32;;;;;;;10.27;3.83;;;;;;;-148.88;100.00;75287.72;5099035;28;20061;-79
2023/03/25 04:36:57;;;;;;;6.10;3.00;;;;;;;-148.88;100.00;75279.59;5081656;28;20016;-79
2023/03/25 04:39:24;;;;;;;6.60;3.10;;;;;;;-148.88;100.00;75271.50;5083314;28;20032;-79
2023/03/25 04:41:52;;;;;;;5.45;2.30;;;;;;;-148.88;100.00;75273.53;5079082;28;20061;-78
2023/03/25 04:44:20;;;;;;;5.40;2.72;;;;;;;-148.88;100.00;75269.47;5079468;28;20487;-79
2023/03/25 04:46:46;;;;;;;5.55;2.40;;;;;;;-148.88;100.00;75263.38;5080070;28;20042;-79
2023/03/25 04:49:20;;;;;;;8.27;3.00;;;;;;;-148.88;100.00;75269.47;5079267;28;20024;-79
2023/03/25 04:51:50;;;;;;;7.75;2.67;;;;;;;-148.88;100.00;75263.38;5097845;28;20036;-79
2023/03/25 04:54:16;;;;;;;5.30;2.70;;;;;;;-148.88;100.00;75263.38;5098022;28;20038;-80
2023/03/25 04:56:42;;;;;;;5.53;2.03;;;;;;;-148.88;100.00;75249.16;5079695;28;20028;-79
2023/03/25 04:59:09;;;;;;;6.45;2.75;;;;;;;-148.88;100.00;75249.16;5080414;28;20059;-80
2023/03/25 05:01:41;;;;;;;4.38;2.50;;;;;;;-148.88;100.00;75251.19;5080338;28;20028;-79
2023/03/25 05:04:11;;;;;;;9.25;2.50;;;;;;;-148.88;100.00;75261.34;5100812;28;20032;-79
2023/03/25 05:06:55;;;;;;;9.55;2.75;;;;;;;-148.88;100.00;75267.44;5087050;28;20020;-80
2023/03/25 05:09:21;;;;;;;5.65;2.03;;;;;;;-148.88;100.00;75261.34;5105580;28;20027;-79
2023/03/25 05:11:48;;;;;;;7.05;2.30;;;;;;;-148.88;100.00;75265.41;5085805;28;20020;-80
2023/03/25 05:14:17;;;;;;;6.93;2.45;;;;;;;-148.88;100.00;75273.53;5102607;28;20020;-80
2023/03/25 05:16:43;;;;;;;5.35;1.90;;;;;;;-148.88;100.00;75269.47;5100347;28;20028;-79
2023/03/25 05:19:09;;;;;;;7.32;2.58;;;;;;;-148.88;100.00;75261.34;5096507;28;20028;-79
2023/03/25 05:21:36;;;;;;;11.90;2.65;;;;;;;-148.88;100.00;75253.22;5097345;28;20021;-79
2023/03/25 05:24:07;;;;;;;4.97;1.85;;;;;;;-148.88;100.00;75253.22;5097002;28;20039;-79
2023/03/25 05:26:33;;;;;;;7.55;2.35;;;;;;;-148.88;100.00;75259.31;5082393;28;20066;-80
2023/03/25 05:29:12;;;;;;;5.00;1.75;;;;;;;-148.88;100.00;75245.09;5086271;28;20113;-79
2023/03/25 05:31:39;;;;;;;4.07;1.75;;;;;;;-148.88;100.00;75253.22;5104909;28;20431;-79
2023/03/25 05:34:05;;;;;;;7.50;2.10;;;;;;;-148.88;100.00;75234.94;5105782;28;20398;-80
2023/03/25 05:36:31;;;;;;;3.55;2.28;;;;;;;-148.88;100.00;75245.09;5086669;28;20017;-80
2023/03/25 05:38:57;;;;;;;4.00;2.28;;;;;;;-148.88;100.00;75241.03;5103595;28;20016;-80
2023/03/25 05:41:31;;;;;;;4.35;2.10;;;;;;;-148.88;100.00;75234.94;5098365;28;20106;-79
2023/03/25 05:43:59;;;;;;;6.18;2.17;;;;;;;-148.88;100.00;75232.91;5080903;28;20024;-79
2023/03/25 05:46:24;;;;;;;6.72;2.65;;;;;;;-148.88;100.00;75241.03;5079466;28;20111;-79
2023/03/25 05:48:50;;;;;;;8.30;2.97;;;;;;;-148.88;100.00;75234.94;5097263;28;20062;-79
2023/03/25 05:51:17;;;;;;;10.32;2.88;;;;;;;-148.88;100.00;75249.16;5101088;28;20050;-79
2023/03/25 05:53:48;;;;;;;6.70;2.63;;;;;;;-148.88;100.00;75236.97;5079404;28;20054;-79
2023/03/25 05:56:16;;;;;;;6.03;2.67;;;;;;;-148.88;100.00;75241.03;5078346;28;20105;-78
2023/03/25 05:58:42;;;;;;;5.05;2.38;;;;;;;-148.88;100.00;75253.22;5078934;28;20443;-78
2023/03/25 06:01:09;;;;;;;5.18;2.55;;;;;;;-148.88;100.00;75249.16;5096614;28;20046;-78
2023/03/25 06:03:35;;;;;;;5.55;3.03;;;;;;;-148.88;100.00;75251.19;5095573;28;20020;-79
2023/03/25 06:06:00;;;;;;;7.07;2.78;;;;;;;-148.88;100.00;75241.03;5077769;28;20028;-79
2023/03/25 06:08:28;;;;;;;6.60;3.45;;;;;;;-148.88;100.00;75245.09;5077546;28;20023;-80
2023/03/25 06:10:57;;;;;;;6.07;3.08;;;;;;;-148.88;100.00;75253.22;5077240;28;20047;-79
2023/03/25 06:13:22;;;;;;;9.43;3.83;;;;;;;-148.88;100.00;75257.28;5095410;28;20016;-78
2023/03/25 06:15:47;;;;;;;6.78;2.88;;;;;;;-148.88;100.00;75257.28;5094870;28;20020;-78
2023/03/25 06:18:13;;;;;;;7.03;3.33;;;;;;;-148.88;100.00;75241.03;5076863;28;20028;-78
2023/03/25 06:20:38;;;;;;;9.82;3.55;;;;;;;-148.88;100.00;75247.13;5094903;28;20020;-78
2023/03/25 06:23:03;;;;;;;9.18;3.78;;;;;;;-148.88;100.00;75249.16;5095035;28;20024;-79
2023/03/25 06:25:30;;;;;;;7.22;3.80;;;;;;;-148.88;100.00;75236.97;5096887;28;20035;-79
2023/03/25 06:27:57;;;;;;;9.40;3.80;;;;;;;-148.88;100.00;75257.28;5099552;28;20104;-80
2023/03/25 06:30:22;;;;;;;11.15;3.67;;;;;;;-148.88;100.00;75257.28;5094095;28;20109;-78
2023/03/25 06:32:49;;;;;;;7.85;3.30;;;;;;;-148.88;100.00;75279.59;5093909;28;20463;-78
2023/03/25 06:35:18;;;;;;;9.55;4.00;;;;;;;-148.88;100.00;75273.53;5094052;28;20531;-79
2023/03/25 06:37:47;;;;;;;7.85;4.20;;;;;;;-148.88;100.00;75287.72;5093760;28;20035;-78
2023/03/25 06:40:14;;;;;;;5.78;3.35;;;;;;;-148.88;100.00;75301.94;5093654;28;20372;-78
2023/03/25 06:42:40;;;;;;;9.45;4.07;;;;;;;-148.88;100.00;75293.81;5093986;28;20028;-78
2023/03/25 06:45:06;;;;;;;8.13;3.53;;;;;;;-148.88;100.00;75293.81;5075759;28;20486;-78
2023/03/25 06:47:33;;;;;;;9.00;4.38;;;;;;;-148.88;100.00;75289.75;5093669;28;20031;-78
2023/03/25 06:49:58;;;;;;;8.38;3.35;;;;;;;-148.88;100.00;75287.72;5094328;28;20107;-78
2023/03/25 06:52:23;;;;;;;9.60;4.10;;;;;;;-148.88;100.00;75271.50;5095890;28;20497;-79
2023/03/25 06:54:48;;;;;;;7.95;3.85;;;;;;;-148.88;100.00;75281.66;5097785;28;20059;-79
2023/03/25 06:57:14;;;;;;;8.43;3.17;;;;;;;-148.88;100.00;75281.66;5078126;28;20027;-79
2023/03/25 06:59:39;;;;;;;8.80;3.38;;;;;;;-148.88;100.00;75255.25;5096035;28;20114;-79
2023/03/25 07:02:05;;;;;;;9.13;5.07;;;;;;;-148.88;100.00;75269.47;5095838;28;20054;-78
2023/03/25 07:04:33;;;;;;;10.02;2.95;;;;;;;-148.88;100.00;75265.41;5062759;28;20566;-79
2023/03/25 07:07:00;;;;;;;8.88;2.78;;;;;;;-148.88;100.00;75253.22;5094569;28;20032;-78
2023/03/25 07:09:25;;;;;;;6.88;2.80;;;;;;;-148.88;100.00;75253.22;5075153;28;20209;-78
2023/03/25 07:11:51;;;;;;;6.80;2.55;;;;;;;-148.88;100.00;75220.72;5093869;28;20390;-78
2023/03/25 07:14:17;;;;;;;3.55;2.00;;;;;;;-148.88;100.00;75232.91;5097221;28;20032;-79
2023/03/25 07:16:42;;;;;;;6.28;2.45;;;;;;;-148.88;100.00;75230.88;5096767;28;20023;-79
2023/03/25 07:19:07;;;;;;;8.02;2.53;;;;;;;-148.88;100.00;75224.78;5079468;28;20505;-80
2023/03/25 07:21:33;;;;;;;6.78;2.60;;;;;;;-148.88;100.00;75222.75;5097024;28;20040;-78
2023/03/25 07:23:58;;;;;;;5.15;2.30;;;;;;;-148.88;100.00;75212.59;5093379;28;20062;-78
2023/03/25 07:26:23;;;;;;;4.22;2.30;;;;;;;-148.88;100.00;75224.78;5076158;28;20110;-78
2023/03/25 07:28:52;;;;;;;4.22;1.92;;;;;;;-148.88;100.00;75228.84;5060010;28;20115;-78
2023/03/25 07:31:17;;;;;;;4.65;1.90;;;;;;;-148.88;100.00;75212.59;5075828;28;20112;-78
2023/03/25 07:33:43;;;;;;;8.02;2.40;;;;;;;-148.88;100.00;75224.78;5075951;28;20048;-78
2023/03/25 07:36:10;;;;;;;5.80;2.10;;;;;;;-148.88;100.00;75206.50;5094398;28;20023;-78
2023/03/25 07:38:38;;;;;;;3.35;1.90;;;;;;;-148.88;100.00;75194.31;5077968;28;20078;-79
2023/03/25 07:41:05;;;;;;;6.38;2.78;;;;;;;-148.88;100.00;75212.59;5096013;28;20027;-79
2023/03/25 07:43:31;;;;;;;7.13;3.08;;;;;;;-148.88;100.00;75212.59;5093617;28;20478;-78
2023/03/25 07:45:57;;;;;;;9.00;2.83;;;;;;;-148.88;100.00;75245.09;5092887;28;20028;-78
2023/03/25 07:48:23;;;;;;;7.88;3.33;;;;;;;-148.88;100.00;75253.22;5093144;28;20393;-78
2023/03/25 07:50:50;;;;;;;6.70;3.08;;;;;;;-148.88;100.00;75251.19;5093601;28;20024;-78
2023/03/25 07:53:17;;;;;;;5.03;2.72;;;;;;;-148.88;100.00;75257.28;5075337;28;20475;-78
2023/03/25 07:55:44;;;;;;;8.18;2.80;;;;;;;-148.88;100.00;75271.50;5093649;28;20034;-78
2023/03/25 07:58:10;;;;;;;12.95;2.97;;;;;;;-148.88;100.00;75271.50;5093597;28;20030;-78
2023/03/25 08:00:35;;;;;;;9.85;2.90;;;;;;;-148.88;100.00;75273.53;5075582;28;20102;-80
2023/03/25 08:03:01;;;;;;;5.60;2.78;;;;;;;-148.88;100.00;75269.47;5093498;28;20078;-78
2023/03/25 08:05:26;;;;;;;5.47;2.63;;;;;;;-148.88;100.00;75265.41;5093329;28;20057;-78
2023/03/25 08:07:52;;;;;;;8.18;2.65;;;;;;;-148.88;100.00;75269.47;5093506;28;20100;-78
2023/03/25 08:10:18;;;;;;;5.45;2.28;;;;;;;-148.88;100.00;75273.53;5075522;28;20020;-78
2023/03/25 08:12:43;;;;;;;7.85;2.72;;;;;;;-148.88;100.00;75285.69;5094167;28;20493;-79
2023/03/25 08:15:12;;;;;;;5.47;2.60;;;;;;;-148.88;100.00;75301.94;5097098;28;20024;-79
2023/03/25 08:17:38;;;;;;;7.63;3.53;;;;;;;-148.88;100.00;75283.66;5097026;28;20050;-79
2023/03/25 08:20:05;;;;;;;5.32;2.70;;;;;;;-148.88;100.00;75299.91;5092845;28;20475;-77
2023/03/25 08:22:32;;;;;;;6.38;2.90;;;;;;;-148.88;100.00;75303.97;5092444;28;20031;-78
2023/03/25 08:24:58;;;;;;;6.38;2.45;;;;;;;-148.88;100.00;75301.94;5074746;28;20374;-80
2023/03/25 08:27:23;;;;;;;6.55;2.90;;;;;;;-148.88;100.00;75301.94;5074808;28;20016;-79
2023/03/25 08:29:53;;;;;;;6.13;2.65;;;;;;;-148.88;100.00;75299.91;5093279;28;20024;-78
2023/03/25 08:32:20;;;;;;;9.52;3.22;;;;;;;-148.88;100.00;75293.81;5092841;28;20024;-78
2023/03/25 08:34:46;;;;;;;7.85;3.30;;;;;;;-148.88;100.00;75281.66;5093275;28;20054;-78
2023/03/25 08:37:13;;;;;;;8.73;2.70;;;;;;;-148.88;100.00;75283.66;5093177;28;20019;-79
2023/03/25 08:39:40;;;;;;;8.68;3.05;;;;;;;-148.88;100.00;75253.22;5096310;28;20032;-81
2023/03/25 08:42:11;;;;;;;6.60;2.53;;;;;;;-148.88;100.00;75259.31;5076263;28;20494;-78
2023/03/25 08:44:36;;;;;;;10.73;4.07;;;;;;;-148.88;100.00;75236.97;5095108;28;20028;-79
2023/03/25 08:47:02;;;;;;;10.75;3.30;;;;;;;-148.88;100.00;75214.63;5094416;28;20020;-79
2023/03/25 08:49:27;;;;;;;7.03;2.97;;;;;;;-148.88;100.00;75216.66;5095772;28;20024;-81
2023/03/25 08:51:52;;;;;;;5.38;2.83;;;;;;;-148.88;100.00;75208.53;5077331;28;20470;-79
2023/03/25 08:54:18;;;;;;;6.32;3.15;;;;;;;-148.88;100.00;75196.34;5098686;28;20363;-78
2023/03/25 08:56:43;;;;;;;7.35;3.00;;;;;;;-148.88;100.00;75176.03;5095981;28;20427;-79
2023/03/25 08:59:08;;;;;;;4.95;2.65;;;;;;;-148.88;100.00;75147.59;5097736;28;20039;-79
2023/03/25 09:01:34;;;;;;;9.45;3.08;;;;;;;-148.88;100.00;75147.59;5098890;28;20028;-78
2023/03/25 09:03:59;;;;;;;5.03;2.80;;;;;;;-148.88;97.51;75151.66;5097605;28;20048;-77
2023/03/25 09:06:25;;;;;;;7.90;2.95;;;;;;;-148.88;97.63;75125.25;5097905;28;20069;-77
2023/03/25 09:08:51;;;;;;;6.03;3.03;;;;;;;-148.88;97.71;75135.41;5097888;28;20032;-78
2023/03/25 09:11:16;;;;;;;6.47;3.45;;;;;;;-148.88;97.75;75133.38;5097425;28;20034;-77
2023/03/25 09:13:42;;;;;;;7.55;2.80;;;;;;;-148.88;97.42;75121.19;5098260;28;20024;-77
2023/03/25 09:16:08;;;;;;;5.85;2.92;;;;;;;-148.88;96.67;75135.41;5097418;28;20107;-77
2023/03/25 09:18:35;;;;;;;9.10;3.33;;;;;;;-148.88;96.20;75129.31;5097450;28;20416;-77
2023/03/25 09:21:02;;;;;;;8.93;4.13;;;;;;;-148.88;97.01;75131.34;5097336;28;20028;-77
2023/03/25 09:23:29;;;;;;;7.07;3.38;;;;;;;-148.88;94.52;75115.09;5097608;28;20028;-77
2023/03/25 09:25:58;;;;;;;7.43;3.60;;;;;;;-148.88;92.34;75119.16;5097180;28;20168;-78
2023/03/25 09:28:23;;;;;;;6.85;2.83;;;;;;;-148.88;93.96;75090.72;5096708;28;20482;-78
2023/03/25 09:30:49;;;;;;;6.32;2.95;;;;;;;-148.88;92.51;75062.31;5097234;28;20077;-77
2023/03/25 09:33:15;;;;;;;8.77;3.60;;;;;;;-148.88;90.53;75044.03;5077553;28;20127;-77
2023/03/25 09:35:40;;;;;;;9.35;3.58;;;;;;;-148.88;88.96;75046.06;5077423;28;20039;-77
2023/03/25 09:38:06;;;;;;;5.25;2.42;;;;;;;-148.88;86.85;75050.13;5077239;28;20055;-79
2023/03/25 09:40:33;;;;;;;6.80;2.45;;;;;;;-148.88;88.82;75046.06;5077374;28;20024;-78
2023/03/25 09:42:58;;;;;;;6.40;2.78;;;;;;;-148.88;88.35;75044.03;5095393;28;20475;-79
2023/03/25 09:45:38;;;;;;;6.88;2.55;;;;;;;-148.88;88.18;75068.41;5077424;28;20035;-79
2023/03/25 09:48:24;;;;;;;6.05;2.33;;;;;;;-148.88;89.06;75070.44;5077541;28;20024;-79
2023/03/25 09:50:49;;;;;;;5.88;2.80;;;;;;;-148.88;88.60;75054.19;5095708;28;20012;-79
2023/03/25 09:53:44;;;;;;;9.65;3.50;;;;;;;-148.88;87.67;75070.44;5096495;28;20073;-79
2023/03/25 09:56:15;;;;;;;7.18;2.50;;;;;;;-148.88;88.80;75070.44;5082782;28;20454;-80
2023/03/25 09:58:49;;;;;;;9.40;3.63;;;;;;;-148.88;88.17;75092.78;5077662;28;20035;-78
2023/03/25 10:01:40;;;;;;;12.10;2.70;;;;;;;-148.88;89.58;75106.97;5096892;28;20107;-80
2023/03/25 10:04:30;;;;;;;5.78;2.38;;;;;;;-148.88;88.44;75100.88;5079520;28;20054;-79
2023/03/25 10:07:23;;;;;;;7.38;2.28;;;;;;;-148.88;87.98;75102.91;5098215;28;20031;-80
2023/03/25 10:10:16;;;;;;;6.80;1.92;;;;;;;-148.88;89.56;75121.19;5076633;28;20045;-78
2023/03/25 10:13:19;;;;;;;6.63;3.00;;;;;;;-148.88;91.10;75127.28;5076657;28;20501;-78
2023/03/25 10:16:01;;;;;;;5.75;2.60;;;;;;;-148.88;91.68;75131.34;5095008;28;20031;-80
2023/03/25 10:18:48;;;;;;;9.90;4.32;;;;;;;-148.88;94.60;75119.16;5076858;28;20027;-80
2023/03/25 10:21:40;;;;;;;7.35;2.50;;;;;;;-148.88;93.20;75070.44;5094632;28;20055;-79
2023/03/25 10:24:15;;;;;;;10.20;2.80;;;;;;;-148.88;91.44;75046.06;5078784;28;20031;-81
2023/03/25 10:26:53;;;;;;;6.70;2.47;;;;;;;-148.88;90.15;75050.13;5099087;28;20487;-81
2023/03/25 10:29:25;;;;;;;8.90;3.67;;;;;;;-148.88;90.31;75082.63;5098985;28;20424;-80
2023/03/25 10:31:58;;;;;;;10.10;4.10;;;;;;;-148.88;91.98;75111.03;5098075;28;20027;-81
2023/03/25 10:34:35;;;;;;;6.53;3.13;;;;;;;-148.88;94.42;75119.16;5098890;28;20028;-80
2023/03/25 10:37:06;;;;;;;12.57;4.50;;;;;;;-148.88;98.07;75129.31;5080893;28;20127;-80
2023/03/25 10:39:37;;;;;;;8.45;3.50;;;;;;;-148.88;99.51;75149.63;5099605;28;20075;-80
2023/03/25 10:42:23;;;;;;;8.30;3.40;;;;;;;-148.88;100.00;75151.66;5100370;28;20036;-81
2023/03/25 10:44:49;;;;;;;11.68;4.85;;;;;;;-148.88;100.00;75147.59;5080307;28;20118;-81
2023/03/25 10:47:22;;;;;;;7.13;3.42;;;;;;;-148.88;100.00;75111.03;5097191;28;20048;-81
2023/03/25 10:49:48;;;;;;;13.50;3.50;;;;;;;-148.88;99.77;75064.34;5094646;28;20024;-80
2023/03/25 10:52:15;;;;;;;10.05;3.67;;;;;;;-148.88;97.88;75009.50;5094453;28;20032;-81
2023/03/25 10:54:44;;;;;;;11.93;3.15;;;;;;;-148.88;94.70;74968.88;5076157;28;20213;-82
2023/03/25 10:57:20;;;;;;;4.60;2.30;;;;;;;-148.88;91.51;74954.66;5077368;28;20063;-82
2023/03/25 10:59:57;;;;;;;4.75;2.20;;;;;;;-148.88;89.34;74903.91;5076711;28;20016;-80
2023/03/25 11:02:27;;;;;;;3.70;1.83;;;;;;;-148.88;87.50;74895.78;5094612;28;20016;-79
2023/03/25 11:05:00;;;;;;;8.32;3.03;;;;;;;-148.88;88.92;74948.56;5075856;28;20118;-81
2023/03/25 11:07:31;;;;;;;12.20;3.28;;;;;;;-148.88;88.24;74964.81;5094112;28;20016;-81
2023/03/25 11:10:23;;;;;;;8.82;3.33;;;;;;;-148.88;89.41;74991.22;5096389;28;20040;-81
2023/03/25 11:12:51;;;;;;;9.23;3.40;;;;;;;-148.88;92.80;74989.19;5096310;28;20401;-81
2023/03/25 11:15:32;;;;;;;10.25;2.40;;;;;;;-148.88;93.86;75011.53;5097079;28;20020;-81
2023/03/25 11:18:13;;;;;;;5.18;2.28;;;;;;;-148.88;92.47;75023.72;5096883;28;20031;-81
2023/03/25 11:20:46;;;;;;;6.53;2.13;;;;;;;-148.88;92.05;75054.19;5077169;28;20024;-81
2023/03/25 11:23:36;;;;;;;6.95;2.15;;;;;;;-148.88;91.68;75033.88;5074821;28;20016;-81
2023/03/25 11:26:11;;;;;;;9.63;2.78;;;;;;;-148.88;92.66;75050.13;5075020;28;20028;-81
2023/03/25 11:28:44;;;;;;;9.77;3.28;;;;;;;-148.88;93.85;75054.19;5075150;28;20023;-82